createdAt,value
2017-10-18T00:02:17.038Z,99.90
2017-10-18T00:04:46.028Z,99.90
2017-10-18T00:07:14.072Z,99.90
2017-10-18T00:09:42.124Z,99.90
2017-10-18T00:12:10.150Z,99.90
2017-10-18T00:14:38.943Z,99.90
2017-10-18T00:17:07.728Z,99.90
2017-10-18T00:19:36.519Z,99.90
2017-10-18T00:22:05.323Z,99.90
2017-10-18T00:24:33.351Z,99.90
2017-10-18T00:27:02.363Z,99.90
2017-10-18T00:29:31.195Z,99.90
2017-10-18T00:31:59.975Z,99.90
2017-10-18T00:34:29.000Z,99.90
2017-10-18T00:36:57.020Z,99.90
2017-10-18T00:39:25.040Z,99.90
2017-10-18T00:41:53.075Z,99.90
2017-10-18T00:44:21.111Z,99.90
2017-10-18T00:46:49.935Z,99.90
2017-10-18T00:49:17.931Z,99.90
2017-10-18T00:51:46.751Z,99.90
2017-10-18T00:54:14.772Z,99.90
2017-10-18T00:56:42.807Z,99.90
2017-10-18T00:59:12.620Z,99.90
2017-10-18T01:01:40.619Z,99.90
2017-10-18T01:04:08.660Z,99.90
2017-10-18T01:06:36.719Z,99.90
2017-10-18T01:09:05.499Z,99.90
2017-10-18T01:11:35.284Z,99.90
2017-10-18T01:14:03.303Z,99.90
2017-10-18T01:16:31.319Z,99.90
2017-10-18T01:18:59.351Z,99.90
2017-10-18T01:21:27.390Z,99.90
2017-10-18T01:23:57.099Z,99.90
2017-10-18T01:26:25.892Z,99.90
2017-10-18T01:28:54.697Z,99.90
2017-10-18T01:31:22.718Z,99.90
2017-10-18T01:33:50.752Z,99.90
2017-10-18T01:36:19.838Z,99.90
2017-10-18T01:38:47.863Z,99.90
2017-10-18T01:41:16.843Z,99.90
2017-10-18T01:43:44.867Z,99.90
2017-10-18T01:46:12.885Z,99.90
2017-10-18T01:48:42.599Z,99.90
2017-10-18T01:51:11.402Z,99.90
2017-10-18T01:53:40.197Z,99.90
2017-10-18T01:56:09.982Z,99.90
2017-10-18T01:58:38.035Z,99.90
2017-10-18T02:01:06.075Z,99.90
2017-10-18T02:03:34.094Z,99.90
2017-10-18T02:06:03.674Z,99.90
2017-10-18T02:08:31.694Z,99.90
2017-10-18T02:11:00.478Z,99.90
2017-10-18T02:13:29.270Z,99.90
2017-10-18T02:15:58.065Z,99.90
2017-10-18T02:18:26.849Z,99.90
2017-10-18T02:20:56.790Z,99.90
2017-10-18T02:23:24.810Z,99.90
2017-10-18T02:25:52.822Z,99.90
2017-10-18T02:28:20.851Z,99.90
2017-10-18T02:30:48.871Z,99.90
2017-10-18T02:33:16.900Z,99.90
2017-10-18T02:35:45.890Z,99.90
2017-10-18T02:38:15.678Z,99.90
2017-10-18T02:40:43.706Z,99.90
2017-10-18T02:43:11.731Z,99.90
2017-10-18T02:45:40.699Z,99.90
2017-10-18T02:48:08.714Z,99.90
2017-10-18T02:50:37.515Z,99.90
2017-10-18T02:53:05.538Z,99.90
2017-10-18T02:55:33.559Z,99.90
2017-10-18T02:58:01.834Z,99.90
2017-10-18T03:00:29.858Z,99.90
2017-10-18T03:02:57.886Z,99.90
2017-10-18T03:05:26.930Z,99.90
2017-10-18T03:07:54.965Z,99.90
2017-10-18T03:10:22.994Z,99.90
2017-10-18T03:12:51.047Z,99.90
2017-10-18T03:15:19.834Z,99.90
2017-10-18T03:17:48.614Z,99.90
2017-10-18T03:20:17.610Z,99.90
2017-10-18T03:22:45.629Z,99.90
2017-10-18T03:25:13.650Z,99.90
2017-10-18T03:27:42.466Z,99.90
2017-10-18T03:30:10.511Z,99.90
2017-10-18T03:32:38.520Z,99.90
2017-10-18T03:35:07.569Z,99.90
2017-10-18T03:37:36.361Z,99.90
2017-10-18T03:40:05.330Z,99.90
2017-10-18T03:42:34.371Z,99.90
2017-10-18T03:45:02.410Z,99.90
2017-10-18T03:47:30.434Z,99.90
2017-10-18T03:49:58.550Z,99.90
2017-10-18T03:52:26.585Z,99.90
2017-10-18T03:54:56.529Z,99.90
2017-10-18T03:57:24.570Z,99.90
2017-10-18T03:59:52.586Z,99.90
2017-10-18T04:02:21.377Z,99.90
2017-10-18T04:04:50.194Z,99.90
2017-10-18T04:07:20.162Z,99.90
2017-10-18T04:09:48.181Z,99.90
2017-10-18T04:12:18.142Z,99.90
2017-10-18T04:14:47.145Z,99.90
2017-10-18T04:17:15.178Z,99.90
2017-10-18T04:19:43.214Z,99.90
2017-10-18T04:22:11.242Z,99.90
2017-10-18T04:24:39.246Z,99.90
2017-10-18T04:27:07.310Z,99.90
2017-10-18T04:29:36.105Z,99.90
2017-10-18T04:32:04.913Z,99.90
2017-10-18T04:34:32.949Z,99.90
2017-10-18T04:37:02.738Z,99.90
2017-10-18T04:39:30.881Z,99.90
2017-10-18T04:42:00.650Z,99.90
2017-10-18T04:44:29.437Z,99.90
2017-10-18T04:46:59.217Z,99.90
2017-10-18T04:49:28.221Z,99.90
2017-10-18T04:51:58.281Z,99.90
2017-10-18T04:54:26.312Z,99.90
2017-10-18T04:56:55.313Z,99.90
2017-10-18T04:59:25.121Z,99.90
2017-10-18T05:01:53.917Z,99.90
2017-10-18T05:04:22.737Z,99.90
2017-10-18T05:06:51.217Z,99.90
2017-10-18T05:09:19.242Z,99.90
2017-10-18T05:11:47.281Z,99.90
2017-10-18T05:14:15.311Z,99.90
2017-10-18T05:16:43.341Z,99.90
2017-10-18T05:19:11.421Z,99.90
2017-10-18T05:21:39.457Z,99.90
2017-10-18T05:24:08.469Z,99.90
2017-10-18T05:26:36.533Z,99.90
2017-10-18T05:29:05.532Z,99.90
2017-10-18T05:31:34.321Z,99.90
2017-10-18T05:34:02.353Z,99.90
2017-10-18T05:36:30.381Z,99.90
2017-10-18T05:38:58.401Z,99.90
2017-10-18T05:41:27.449Z,99.90
2017-10-18T05:43:56.234Z,99.90
2017-10-18T05:46:26.029Z,99.90
2017-10-18T05:48:54.932Z,99.90
2017-10-18T05:51:23.744Z,99.90
2017-10-18T05:53:51.793Z,99.90
2017-10-18T05:56:21.605Z,99.90
2017-10-18T05:58:51.416Z,99.90
2017-10-18T06:01:20.208Z,99.90
2017-10-18T06:03:49.029Z,99.90
2017-10-18T06:06:17.049Z,99.90
2017-10-18T06:08:45.069Z,99.90
2017-10-18T06:11:13.113Z,99.90
2017-10-18T06:13:41.912Z,99.90
2017-10-18T06:16:09.949Z,99.90
2017-10-18T06:18:39.609Z,99.90
2017-10-18T06:21:07.624Z,99.90
2017-10-18T06:23:35.653Z,99.90
2017-10-18T06:26:03.691Z,99.90
2017-10-18T06:28:32.473Z,99.90
2017-10-18T06:31:01.277Z,99.90
2017-10-18T06:33:29.320Z,99.90
2017-10-18T06:35:58.304Z,99.90
2017-10-18T06:38:26.328Z,99.90
2017-10-18T06:40:54.369Z,99.90
2017-10-18T06:43:23.165Z,99.90
2017-10-18T06:45:52.932Z,99.90
2017-10-18T06:48:20.981Z,99.90
2017-10-18T06:50:48.997Z,99.90
2017-10-18T06:53:17.788Z,99.90
2017-10-18T06:55:46.584Z,99.90
2017-10-18T06:58:14.620Z,99.90
2017-10-18T07:00:42.655Z,99.90
2017-10-18T07:03:10.701Z,99.90
2017-10-18T07:05:40.396Z,99.90
2017-10-18T07:08:09.180Z,99.90
2017-10-18T07:10:38.000Z,99.90
2017-10-18T07:13:06.033Z,99.90
2017-10-18T07:15:35.848Z,99.90
2017-10-18T07:18:08.311Z,99.90
2017-10-18T07:20:38.095Z,99.90
2017-10-18T07:23:07.120Z,99.90
2017-10-18T07:25:35.144Z,99.90
2017-10-18T07:28:04.204Z,99.90
2017-10-18T07:30:33.146Z,99.90
2017-10-18T07:33:01.196Z,99.90
2017-10-18T07:35:30.234Z,99.90
2017-10-18T07:37:59.152Z,99.90
2017-10-18T07:40:27.243Z,99.90
2017-10-18T07:42:55.286Z,99.90
2017-10-18T07:45:24.267Z,99.90
2017-10-18T07:47:53.075Z,99.90
2017-10-18T07:50:21.127Z,99.90
2017-10-18T07:52:50.907Z,99.90
2017-10-18T07:55:18.964Z,99.90
2017-10-18T07:57:47.980Z,99.90
2017-10-18T08:00:16.983Z,99.90
2017-10-18T08:02:45.064Z,99.90
2017-10-18T08:05:13.863Z,99.90
2017-10-18T08:07:42.755Z,99.90
2017-10-18T08:10:10.947Z,99.90
2017-10-18T08:12:39.044Z,99.90
2017-10-18T08:15:08.063Z,99.90
2017-10-18T08:17:36.319Z,99.90
2017-10-18T08:20:05.327Z,99.90
2017-10-18T08:22:35.343Z,99.90
2017-10-18T08:25:03.455Z,99.90
2017-10-18T08:27:31.547Z,99.90
2017-10-18T08:30:01.543Z,99.90
2017-10-18T08:32:30.347Z,99.90
2017-10-18T08:34:58.539Z,99.90
2017-10-18T08:37:26.584Z,99.90
2017-10-18T08:39:54.619Z,99.90
2017-10-18T08:42:23.407Z,99.90
2017-10-18T08:44:52.311Z,99.90
2017-10-18T08:47:20.367Z,99.90
2017-10-18T08:49:49.171Z,99.90
2017-10-18T08:52:18.117Z,99.90
2017-10-18T08:54:47.915Z,99.90
2017-10-18T08:57:15.943Z,99.90
2017-10-18T08:59:43.971Z,99.90
2017-10-18T09:02:12.027Z,99.90
2017-10-18T09:04:40.052Z,99.90
2017-10-18T09:07:08.095Z,99.90
2017-10-18T09:09:38.103Z,99.90
2017-10-18T09:12:06.119Z,99.90
2017-10-18T09:14:34.143Z,99.90
2017-10-18T09:17:02.222Z,99.90
2017-10-18T09:19:31.003Z,99.90
2017-10-18T09:21:59.915Z,99.90
2017-10-18T09:24:28.735Z,99.90
2017-10-18T09:26:56.763Z,99.90
2017-10-18T09:29:26.571Z,99.90
2017-10-18T09:31:54.574Z,99.90
2017-10-18T09:34:24.538Z,99.90
2017-10-18T09:36:53.531Z,99.90
2017-10-18T09:39:21.574Z,99.90
2017-10-18T09:41:50.591Z,99.90
2017-10-18T09:44:19.556Z,99.90
2017-10-18T09:46:47.699Z,99.90
2017-10-18T09:49:15.695Z,99.90
2017-10-18T09:51:43.727Z,99.90
2017-10-18T09:54:13.494Z,99.90
2017-10-18T09:56:42.555Z,99.90
2017-10-18T09:59:11.655Z,99.90
2017-10-18T10:01:41.338Z,99.90
2017-10-18T10:04:11.127Z,99.90
2017-10-18T10:06:39.146Z,99.90
2017-10-18T10:09:09.118Z,99.90
2017-10-18T10:11:37.147Z,99.90
2017-10-18T10:14:06.170Z,99.90
2017-10-18T10:16:34.427Z,99.90
2017-10-18T10:19:02.463Z,99.90
2017-10-18T10:21:31.406Z,99.90
2017-10-18T10:24:00.474Z,99.90
2017-10-18T10:26:29.275Z,99.90
2017-10-18T10:28:57.402Z,99.90
2017-10-18T10:31:27.194Z,99.90
2017-10-18T10:33:55.985Z,99.90
2017-10-18T10:36:24.811Z,99.90
2017-10-18T10:38:52.845Z,99.90
2017-10-18T10:41:23.190Z,99.90
2017-10-18T10:43:51.210Z,99.90
2017-10-18T10:46:19.253Z,99.90
2017-10-18T10:48:47.283Z,99.90
2017-10-18T10:51:15.315Z,99.90
2017-10-18T10:53:44.338Z,99.90
2017-10-18T10:56:13.129Z,99.90
2017-10-18T10:58:42.082Z,99.90
2017-10-18T11:01:10.122Z,99.90
2017-10-18T11:03:38.155Z,99.90
2017-10-18T11:06:08.878Z,99.90
2017-10-18T11:08:36.926Z,99.90
2017-10-18T11:11:04.949Z,99.90
2017-10-18T11:13:33.897Z,99.90
2017-10-18T11:16:03.087Z,99.90
2017-10-18T11:18:31.078Z,99.90
2017-10-18T11:21:01.807Z,99.90
2017-10-18T11:23:29.861Z,99.90
2017-10-18T11:25:57.906Z,99.90
2017-10-18T11:28:25.941Z,99.90
2017-10-18T11:30:53.993Z,99.90
2017-10-18T11:33:22.016Z,99.90
2017-10-18T11:35:50.050Z,99.90
2017-10-18T11:38:18.102Z,99.90
2017-10-18T11:40:46.905Z,99.90
2017-10-18T11:43:14.937Z,99.90
2017-10-18T11:45:43.558Z,99.90
2017-10-18T11:48:12.510Z,99.90
2017-10-18T11:50:40.543Z,99.90
2017-10-18T11:53:08.605Z,95.50
2017-10-18T11:55:36.625Z,81.00
2017-10-18T11:58:04.658Z,68.50
2017-10-18T12:00:33.714Z,58.20
2017-10-18T12:03:02.505Z,52.40
2017-10-18T12:05:31.530Z,52.90
2017-10-18T12:08:00.297Z,51.80
2017-10-18T12:10:28.337Z,51.90
2017-10-18T12:12:56.397Z,51.90
2017-10-18T12:15:24.447Z,50.80
2017-10-18T12:17:52.474Z,50.10
2017-10-18T12:20:20.502Z,46.80
2017-10-18T12:22:48.545Z,47.70
2017-10-18T12:25:18.282Z,48.50
2017-10-18T12:27:47.070Z,47.50
2017-10-18T12:30:15.153Z,47.50
2017-10-18T12:32:43.490Z,48.40
2017-10-18T12:35:12.285Z,49.60
2017-10-18T12:37:40.322Z,49.60
2017-10-18T12:40:08.357Z,49.50
2017-10-18T12:42:38.169Z,49.10
2017-10-18T12:45:06.214Z,48.50
2017-10-18T12:47:34.269Z,41.80
2017-10-18T12:50:02.285Z,41.40
2017-10-18T12:52:30.758Z,44.70
2017-10-18T12:54:58.785Z,48.50
2017-10-18T12:57:26.825Z,41.20
2017-10-18T12:59:55.634Z,46.10
2017-10-18T13:02:23.642Z,46.00
2017-10-18T13:04:51.682Z,46.20
2017-10-18T13:07:20.349Z,48.50
2017-10-18T13:09:49.281Z,47.90
2017-10-18T13:12:17.342Z,49.00
2017-10-18T13:14:45.365Z,47.50
2017-10-18T13:17:18.317Z,51.20
2017-10-18T13:19:47.133Z,51.90
2017-10-18T13:22:15.921Z,53.10
2017-10-18T13:24:45.705Z,54.90
2017-10-18T13:27:13.741Z,54.90
2017-10-18T13:29:41.765Z,57.40
2017-10-18T13:32:10.564Z,57.20
2017-10-18T13:34:39.365Z,58.90
2017-10-18T13:37:07.385Z,58.90
2017-10-18T13:39:36.377Z,58.40
2017-10-18T13:42:04.440Z,58.90
2017-10-18T13:44:32.429Z,59.90
2017-10-18T13:47:00.445Z,62.50
2017-10-18T13:49:33.621Z,64.00
2017-10-18T13:52:02.498Z,64.00
2017-10-18T13:54:33.089Z,68.80
2017-10-18T13:57:01.249Z,68.70
2017-10-18T13:59:30.265Z,72.00
2017-10-18T14:01:59.277Z,75.80
2017-10-18T14:04:27.312Z,78.60
2017-10-18T14:06:55.337Z,83.70
2017-10-18T14:09:24.601Z,91.90
2017-10-18T14:11:52.629Z,91.90
2017-10-18T14:14:20.653Z,93.30
2017-10-18T14:16:50.665Z,93.00
2017-10-18T14:19:18.685Z,93.10
2017-10-18T14:21:47.466Z,95.60
2017-10-18T14:24:16.436Z,95.60
2017-10-18T14:26:45.213Z,93.40
2017-10-18T14:29:13.996Z,94.30
2017-10-18T14:31:42.033Z,94.30
2017-10-18T14:34:10.465Z,92.40
2017-10-18T14:36:38.453Z,86.80
2017-10-18T14:39:06.477Z,85.20
2017-10-18T14:41:35.401Z,82.40
2017-10-18T14:44:05.365Z,76.00
2017-10-18T14:46:34.369Z,70.00
2017-10-18T14:49:02.385Z,61.50
2017-10-18T14:51:30.401Z,59.40
2017-10-18T14:53:58.433Z,58.10
2017-10-18T14:56:26.449Z,57.50
2017-10-18T14:58:55.369Z,57.20
2017-10-18T15:01:25.137Z,54.40
2017-10-18T15:03:53.165Z,54.90
2017-10-18T15:06:21.196Z,52.70
2017-10-18T15:08:49.292Z,52.80
2017-10-18T15:11:17.341Z,52.20
2017-10-18T15:13:45.356Z,50.30
2017-10-18T15:16:13.380Z,48.90
2017-10-18T15:18:42.352Z,48.60
2017-10-18T15:21:10.376Z,48.10
2017-10-18T15:23:38.412Z,48.30
2017-10-18T15:26:07.377Z,48.70
2017-10-18T15:28:35.844Z,48.70
2017-10-18T15:31:04.871Z,49.20
2017-10-18T15:33:32.904Z,48.90
2017-10-18T15:36:00.924Z,49.60
2017-10-18T15:38:30.708Z,53.60
2017-10-18T15:40:59.697Z,53.60
2017-10-18T15:43:27.716Z,55.10
2017-10-18T15:45:55.764Z,56.50
2017-10-18T15:48:24.570Z,58.30
2017-10-18T15:50:53.360Z,59.40
2017-10-18T15:53:21.415Z,59.30
2017-10-18T15:55:50.205Z,60.00
2017-10-18T15:58:18.992Z,61.80
2017-10-18T16:00:47.804Z,65.00
2017-10-18T16:03:15.820Z,65.00
2017-10-18T16:05:48.321Z,76.10
2017-10-18T16:08:18.100Z,89.30
2017-10-18T16:10:46.115Z,89.30
2017-10-18T16:13:14.151Z,99.90
2017-10-18T16:15:42.176Z,99.90
2017-10-18T16:18:10.220Z,99.90
2017-10-18T16:20:39.015Z,99.90
2017-10-18T16:23:07.045Z,99.90
2017-10-18T16:25:37.771Z,99.90
2017-10-18T16:28:05.823Z,99.90
2017-10-18T16:30:34.776Z,99.90
2017-10-18T16:33:07.115Z,99.90
2017-10-18T16:35:36.844Z,99.90
2017-10-18T16:38:05.628Z,99.90
2017-10-18T16:40:37.891Z,99.90
2017-10-18T16:43:06.672Z,99.90
2017-10-18T16:45:35.664Z,99.90
2017-10-18T16:48:04.639Z,99.90
2017-10-18T16:50:32.655Z,99.90
2017-10-18T16:53:02.620Z,99.90
2017-10-18T16:55:31.555Z,99.90
2017-10-18T16:58:00.327Z,99.90
2017-10-18T17:00:29.152Z,99.90
2017-10-18T17:02:57.879Z,99.90
2017-10-18T17:05:25.915Z,99.90
2017-10-18T17:07:53.923Z,99.90
2017-10-18T17:10:22.911Z,99.90
2017-10-18T17:12:50.939Z,99.90
2017-10-18T17:15:18.976Z,99.90
2017-10-18T17:17:47.776Z,99.90
2017-10-18T17:20:15.803Z,99.90
2017-10-18T17:22:43.831Z,99.90
2017-10-18T17:25:11.874Z,99.90
2017-10-18T17:27:40.676Z,99.90
2017-10-18T17:30:09.527Z,99.90
2017-10-18T17:32:37.575Z,99.90
2017-10-18T17:35:05.620Z,99.90
2017-10-18T17:37:34.191Z,99.90
2017-10-18T17:40:02.264Z,99.90
2017-10-18T17:42:31.296Z,99.90
2017-10-18T17:45:00.103Z,99.90
2017-10-18T17:47:28.170Z,99.90
2017-10-18T17:49:57.240Z,99.90
2017-10-18T17:52:25.287Z,99.90
2017-10-18T17:54:54.355Z,99.90
2017-10-18T17:57:22.407Z,99.90
2017-10-18T17:59:50.450Z,99.90
2017-10-18T18:02:18.687Z,99.90
2017-10-18T18:04:47.527Z,99.90
2017-10-18T18:07:15.594Z,99.90
2017-10-18T18:09:44.631Z,99.90
2017-10-18T18:12:12.687Z,99.90
2017-10-18T18:14:41.486Z,99.90
2017-10-18T18:17:09.555Z,99.90
2017-10-18T18:19:37.627Z,99.90
2017-10-18T18:22:06.455Z,99.90
2017-10-18T18:24:34.515Z,99.90
2017-10-18T18:27:02.575Z,99.90
2017-10-18T18:29:30.615Z,99.90
2017-10-18T18:31:58.690Z,99.90
2017-10-18T18:34:28.494Z,99.90
2017-10-18T18:36:57.307Z,99.90
2017-10-18T18:39:25.383Z,99.90
2017-10-18T18:41:54.335Z,99.90
2017-10-18T18:44:23.331Z,99.90
2017-10-18T18:46:51.367Z,99.90
2017-10-18T18:49:20.395Z,99.90
2017-10-18T18:51:48.982Z,99.90
2017-10-18T18:54:17.802Z,99.90
2017-10-18T18:56:45.839Z,99.90
2017-10-18T18:59:14.635Z,99.90
2017-10-18T19:01:43.442Z,99.90
2017-10-18T19:04:11.474Z,99.90
2017-10-18T19:06:39.506Z,99.90
2017-10-18T19:09:07.578Z,99.90
2017-10-18T19:11:35.602Z,99.90
2017-10-18T19:14:04.394Z,99.90
2017-10-18T19:16:33.202Z,99.90
2017-10-18T19:19:01.246Z,99.90
2017-10-18T19:21:30.054Z,99.90
2017-10-18T19:23:59.030Z,99.90
2017-10-18T19:26:27.832Z,99.90
2017-10-18T19:28:55.871Z,99.90
2017-10-18T19:31:23.922Z,99.90
2017-10-18T19:33:52.934Z,99.90
2017-10-18T19:36:20.958Z,99.90
2017-10-18T19:38:49.022Z,99.90
2017-10-18T19:41:17.046Z,99.90
2017-10-18T19:43:45.096Z,99.90
2017-10-18T19:46:14.042Z,99.90
2017-10-18T19:48:43.018Z,99.90
2017-10-18T19:51:11.824Z,99.90
2017-10-18T19:53:39.878Z,99.90
2017-10-18T19:56:09.594Z,99.90
2017-10-18T19:58:39.386Z,99.90
2017-10-18T20:01:09.090Z,99.90
2017-10-18T20:03:37.110Z,99.90
2017-10-18T20:06:05.154Z,99.90
2017-10-18T20:08:34.861Z,99.90
2017-10-18T20:11:03.638Z,99.90
2017-10-18T20:13:32.457Z,99.90
2017-10-18T20:16:00.498Z,99.90
2017-10-18T20:18:29.302Z,99.90
2017-10-18T20:20:57.346Z,99.90
2017-10-18T20:23:26.166Z,99.90
2017-10-18T20:25:54.193Z,99.90
2017-10-18T20:28:22.247Z,99.90
2017-10-18T20:30:50.283Z,99.90
2017-10-18T20:33:18.346Z,99.90
2017-10-18T20:35:46.334Z,99.90
2017-10-18T20:38:14.358Z,99.90
2017-10-18T20:40:43.166Z,99.90
2017-10-18T20:43:11.205Z,99.90
2017-10-18T20:45:39.222Z,99.90
2017-10-18T20:48:08.178Z,99.90
2017-10-18T20:50:36.209Z,99.90
2017-10-18T20:53:05.006Z,99.90
2017-10-18T20:55:33.038Z,99.90
2017-10-18T20:58:01.080Z,99.90
2017-10-18T21:00:29.882Z,99.90
2017-10-18T21:02:57.909Z,99.90
2017-10-18T21:05:25.949Z,99.90
2017-10-18T21:07:53.965Z,99.90
2017-10-18T21:10:21.982Z,99.90
2017-10-18T21:12:50.150Z,99.90
2017-10-18T21:15:18.171Z,99.90
2017-10-18T21:17:46.240Z,99.90
2017-10-18T21:20:15.010Z,99.90
2017-10-18T21:22:44.030Z,99.90
2017-10-18T21:25:12.054Z,99.90
2017-10-18T21:27:40.080Z,99.90
2017-10-18T21:30:08.874Z,99.90
2017-10-18T21:32:37.702Z,99.90
2017-10-18T21:35:05.742Z,99.90
2017-10-18T21:37:33.814Z,99.90
2017-10-18T21:40:02.614Z,99.90
2017-10-18T21:42:30.649Z,99.90
2017-10-18T21:45:00.473Z,99.90
2017-10-18T21:47:29.269Z,99.90
2017-10-18T21:49:57.329Z,99.90
2017-10-18T21:52:26.113Z,99.90
2017-10-18T21:54:54.913Z,99.90
2017-10-18T21:57:23.208Z,99.90
2017-10-18T21:59:51.246Z,99.90
2017-10-18T22:02:20.026Z,99.90
2017-10-18T22:04:49.862Z,99.90
2017-10-18T22:07:18.817Z,99.90
2017-10-18T22:09:46.842Z,99.90
2017-10-18T22:12:14.874Z,99.90
2017-10-18T22:14:43.665Z,99.90
2017-10-18T22:17:12.461Z,99.90
2017-10-18T22:19:41.304Z,99.90
2017-10-18T22:22:09.324Z,99.90
2017-10-18T22:24:37.356Z,99.90
2017-10-18T22:27:05.389Z,99.90
2017-10-18T22:29:34.445Z,99.90
2017-10-18T22:32:03.242Z,99.90
2017-10-18T22:34:32.955Z,99.90
2017-10-18T22:37:00.989Z,99.90
2017-10-18T22:39:29.013Z,99.90
2017-10-18T22:41:57.074Z,99.90
2017-10-18T22:44:25.105Z,99.90
2017-10-18T22:46:53.126Z,99.90
2017-10-18T22:49:21.193Z,99.90
2017-10-18T22:51:49.233Z,99.90
2017-10-18T22:54:19.036Z,99.90
2017-10-18T22:56:47.865Z,99.90
2017-10-18T22:59:17.817Z,99.90
2017-10-18T23:01:45.857Z,99.90
2017-10-18T23:04:13.897Z,99.90
2017-10-18T23:06:41.937Z,99.90
2017-10-18T23:09:09.960Z,99.90
2017-10-18T23:11:38.009Z,99.90
2017-10-18T23:14:06.141Z,99.90
2017-10-18T23:16:34.189Z,99.90
2017-10-18T23:19:02.221Z,99.90
2017-10-18T23:21:30.293Z,99.90
2017-10-18T23:23:58.328Z,99.90
2017-10-18T23:26:26.360Z,99.90
2017-10-18T23:28:54.396Z,99.90
2017-10-18T23:31:23.188Z,99.90
2017-10-18T23:33:51.240Z,99.90
2017-10-18T23:36:20.057Z,99.90
2017-10-18T23:38:48.096Z,99.90
2017-10-18T23:41:16.133Z,99.90
2017-10-18T23:43:44.173Z,99.90
2017-10-18T23:46:12.188Z,99.90
2017-10-18T23:48:40.261Z,99.90
2017-10-18T23:51:08.304Z,99.90
2017-10-18T23:53:36.340Z,99.90
2017-10-18T23:56:04.392Z,99.90
2017-10-18T23:58:34.176Z,99.90
